Indianapolis International Airport
KIND : now visible

Airfield :











YOU CAN JOIN US ON...

 
LOGIN :

Register | Disclaimer

   EN    FR    IT 

 









Legend :    VFR   Marginal VFR   IFR   Intensive IFR   Very Intensive IFR
Visi :
Ceiling :
>= 8 km
>= 3000ft
5 to 8 km
1000 to 3000 ft
1500m to 5 km
500 to 1000 ft
800 to 1500m
200 to 500 ft
< 800m
< 200 ft
Symbols :   Thunderstorms  Fog  Heavy snow  Heavy precipitations  Wind > 20 kt






- Airport Elevation : 797 ft
- IATA code : IND


KIND - Indianapolis International

CURRENT METAR :
  • 080854Z 15004KT 10SM FEW250 M02/M05 A3017 RMK AO2 SLP223 T10171050 56014

EXPIRED METARs :
  • 080754Z 15005KT 10SM FEW250 M01/M05 A3019 RMK AO2 SLP230 T10111050
  • 080654Z 15007KT 10SM FEW250 M01/M05 A3019 RMK AO2 SLP230 T10061050

TAF KIND
Valid from the 08 at 08:00 until the 09 at 12:00 UTC


080826Z 0808/0912 17007KT P6SM SCT020 BKN250
FM090100 19008KT P6SM OVC023
FM090300 19008KT P6SM OVC017
FM090600 19008KT 6SM RA OVC009



MET'MAP, your aeronautical weather chart ! - Copyright ORBIFLY December 2007 - Disclaimer

ORBIFLY MET'MAP TEAM :

Programming & Development : Alexandra Zaïnal
Concept & original design : Baudouin d'Aumeries
Assistance for programming : Marc-Olivier Méhu
Technical & hardware support : Manuel Goepfert

Contact : metmap@orbifly.com




SOURCES & CREDITS :

   NOAA       Earth
Advisory